sensor_id;sensor_type;location;lat;lon;timestamp;P1;durP1;ratioP1;P2;durP2;ratioP2
72684;SDS011;61365;52.162;4.500;2023-03-18T00:00:26;19.45;;;10.90;;
72684;SDS011;61365;52.162;4.500;2023-03-18T00:02:52;22.00;;;10.88;;
72684;SDS011;61365;52.162;4.500;2023-03-18T00:05:18;27.30;;;12.02;;
72684;SDS011;61365;52.162;4.500;2023-03-18T00:07:45;22.58;;;13.50;;
72684;SDS011;61365;52.162;4.500;2023-03-18T00:10:12;25.55;;;13.32;;
72684;SDS011;61365;52.162;4.500;2023-03-18T00:12:39;35.80;;;17.23;;
72684;SDS011;61365;52.162;4.500;2023-03-18T00:15:07;31.73;;;15.98;;
72684;SDS011;61365;52.162;4.500;2023-03-18T00:17:37;29.50;;;15.80;;
72684;SDS011;61365;52.162;4.500;2023-03-18T00:20:05;30.23;;;15.93;;
72684;SDS011;61365;52.162;4.500;2023-03-18T00:22:34;30.63;;;16.40;;
72684;SDS011;61365;52.162;4.500;2023-03-18T00:25:03;22.17;;;13.23;;
72684;SDS011;61365;52.162;4.500;2023-03-18T00:27:32;20.48;;;11.55;;
72684;SDS011;61365;52.162;4.500;2023-03-18T00:30:00;20.27;;;11.70;;
72684;SDS011;61365;52.162;4.500;2023-03-18T00:32:29;25.63;;;12.68;;
72684;SDS011;61365;52.162;4.500;2023-03-18T00:34:56;20.10;;;11.95;;
72684;SDS011;61365;52.162;4.500;2023-03-18T00:37:24;25.48;;;13.05;;
72684;SDS011;61365;52.162;4.500;2023-03-18T00:39:58;25.73;;;12.68;;
72684;SDS011;61365;52.162;4.500;2023-03-18T00:42:35;25.77;;;13.43;;
72684;SDS011;61365;52.162;4.500;2023-03-18T00:45:05;25.45;;;14.38;;
72684;SDS011;61365;52.162;4.500;2023-03-18T00:47:35;26.13;;;14.55;;
72684;SDS011;61365;52.162;4.500;2023-03-18T00:50:03;29.58;;;15.95;;
72684;SDS011;61365;52.162;4.500;2023-03-18T00:52:33;27.17;;;15.52;;
72684;SDS011;61365;52.162;4.500;2023-03-18T00:55:00;30.27;;;16.50;;
72684;SDS011;61365;52.162;4.500;2023-03-18T00:57:27;28.92;;;14.73;;
72684;SDS011;61365;52.162;4.500;2023-03-18T00:59:55;26.58;;;15.98;;
72684;SDS011;61365;52.162;4.500;2023-03-18T01:02:22;27.10;;;16.25;;
72684;SDS011;61365;52.162;4.500;2023-03-18T01:04:49;28.25;;;15.85;;
72684;SDS011;61365;52.162;4.500;2023-03-18T01:07:16;25.98;;;15.65;;
72684;SDS011;61365;52.162;4.500;2023-03-18T01:09:42;27.88;;;15.73;;
72684;SDS011;61365;52.162;4.500;2023-03-18T01:12:09;26.55;;;16.23;;
72684;SDS011;61365;52.162;4.500;2023-03-18T01:14:37;29.00;;;17.42;;
72684;SDS011;61365;52.162;4.500;2023-03-18T01:17:05;29.98;;;16.73;;
72684;SDS011;61365;52.162;4.500;2023-03-18T01:19:33;25.17;;;16.23;;
72684;SDS011;61365;52.162;4.500;2023-03-18T01:22:01;29.10;;;16.02;;
72684;SDS011;61365;52.162;4.500;2023-03-18T01:24:28;29.30;;;15.88;;
72684;SDS011;61365;52.162;4.500;2023-03-18T01:26:55;28.00;;;15.73;;
72684;SDS011;61365;52.162;4.500;2023-03-18T01:29:22;27.90;;;16.38;;
72684;SDS011;61365;52.162;4.500;2023-03-18T01:31:49;27.08;;;17.08;;
72684;SDS011;61365;52.162;4.500;2023-03-18T01:34:16;29.38;;;17.02;;
72684;SDS011;61365;52.162;4.500;2023-03-18T01:36:43;29.63;;;17.20;;
72684;SDS011;61365;52.162;4.500;2023-03-18T01:39:10;31.25;;;17.38;;
72684;SDS011;61365;52.162;4.500;2023-03-18T01:41:37;36.08;;;18.70;;
72684;SDS011;61365;52.162;4.500;2023-03-18T01:44:10;31.58;;;17.27;;
72684;SDS011;61365;52.162;4.500;2023-03-18T01:46:43;36.03;;;17.45;;
72684;SDS011;61365;52.162;4.500;2023-03-18T01:51:46;30.83;;;18.95;;
72684;SDS011;61365;52.162;4.500;2023-03-18T01:54:23;29.05;;;18.23;;
72684;SDS011;61365;52.162;4.500;2023-03-18T01:56:51;36.03;;;18.42;;
72684;SDS011;61365;52.162;4.500;2023-03-18T01:59:20;32.55;;;17.83;;
72684;SDS011;61365;52.162;4.500;2023-03-18T02:01:54;32.17;;;17.40;;
72684;SDS011;61365;52.162;4.500;2023-03-18T02:04:30;29.98;;;16.85;;
72684;SDS011;61365;52.162;4.500;2023-03-18T02:07:04;31.45;;;16.88;;
72684;SDS011;61365;52.162;4.500;2023-03-18T02:09:32;28.80;;;16.15;;
72684;SDS011;61365;52.162;4.500;2023-03-18T02:12:00;25.77;;;16.40;;
72684;SDS011;61365;52.162;4.500;2023-03-18T02:14:27;25.48;;;16.23;;
72684;SDS011;61365;52.162;4.500;2023-03-18T02:17:05;30.75;;;16.75;;
72684;SDS011;61365;52.162;4.500;2023-03-18T02:27:13;30.60;;;16.60;;
72684;SDS011;61365;52.162;4.500;2023-03-18T02:29:21;26.08;;;16.33;;
72684;SDS011;61365;52.162;4.500;2023-03-18T02:31:52;37.58;;;17.65;;
72684;SDS011;61365;52.162;4.500;2023-03-18T02:34:21;30.98;;;15.60;;
72684;SDS011;61365;52.162;4.500;2023-03-18T02:36:50;26.08;;;15.20;;
72684;SDS011;61365;52.162;4.500;2023-03-18T02:39:16;30.15;;;17.55;;
72684;SDS011;61365;52.162;4.500;2023-03-18T02:41:43;26.13;;;15.85;;
72684;SDS011;61365;52.162;4.500;2023-03-18T02:44:10;26.50;;;15.02;;
72684;SDS011;61365;52.162;4.500;2023-03-18T02:49:25;26.30;;;16.15;;
72684;SDS011;61365;52.162;4.500;2023-03-18T02:51:53;26.75;;;16.83;;
72684;SDS011;61365;52.162;4.500;2023-03-18T02:54:22;25.70;;;15.20;;
72684;SDS011;61365;52.162;4.500;2023-03-18T02:56:52;30.70;;;16.15;;
72684;SDS011;61365;52.162;4.500;2023-03-18T02:59:20;28.40;;;16.20;;
72684;SDS011;61365;52.162;4.500;2023-03-18T03:01:48;30.42;;;15.88;;
72684;SDS011;61365;52.162;4.500;2023-03-18T03:04:17;33.97;;;16.10;;
72684;SDS011;61365;52.162;4.500;2023-03-18T03:06:46;28.67;;;16.10;;
72684;SDS011;61365;52.162;4.500;2023-03-18T03:09:13;28.58;;;17.73;;
72684;SDS011;61365;52.162;4.500;2023-03-18T03:11:42;26.13;;;16.67;;
72684;SDS011;61365;52.162;4.500;2023-03-18T03:14:11;29.98;;;17.00;;
72684;SDS011;61365;52.162;4.500;2023-03-18T03:16:39;25.48;;;16.27;;
72684;SDS011;61365;52.162;4.500;2023-03-18T03:19:05;25.83;;;15.60;;
72684;SDS011;61365;52.162;4.500;2023-03-18T03:21:32;26.02;;;16.05;;
72684;SDS011;61365;52.162;4.500;2023-03-18T03:24:03;29.80;;;16.33;;
72684;SDS011;61365;52.162;4.500;2023-03-18T03:26:31;24.33;;;15.48;;
72684;SDS011;61365;52.162;4.500;2023-03-18T03:28:59;25.42;;;15.30;;
72684;SDS011;61365;52.162;4.500;2023-03-18T03:31:27;27.45;;;15.23;;
72684;SDS011;61365;52.162;4.500;2023-03-18T03:33:53;26.40;;;15.25;;
72684;SDS011;61365;52.162;4.500;2023-03-18T03:36:19;26.20;;;14.68;;
72684;SDS011;61365;52.162;4.500;2023-03-18T03:38:46;30.13;;;16.23;;
72684;SDS011;61365;52.162;4.500;2023-03-18T03:41:13;24.92;;;14.45;;
72684;SDS011;61365;52.162;4.500;2023-03-18T03:43:40;35.75;;;15.68;;
72684;SDS011;61365;52.162;4.500;2023-03-18T03:46:08;28.13;;;16.60;;
72684;SDS011;61365;52.162;4.500;2023-03-18T03:48:36;26.95;;;15.45;;
72684;SDS011;61365;52.162;4.500;2023-03-18T03:51:04;26.58;;;15.90;;
72684;SDS011;61365;52.162;4.500;2023-03-18T03:53:32;27.38;;;15.15;;
72684;SDS011;61365;52.162;4.500;2023-03-18T03:55:59;30.63;;;16.08;;
72684;SDS011;61365;52.162;4.500;2023-03-18T03:58:26;30.65;;;15.10;;
72684;SDS011;61365;52.162;4.500;2023-03-18T04:00:52;25.52;;;14.48;;
72684;SDS011;61365;52.162;4.500;2023-03-18T04:03:19;28.48;;;16.63;;
72684;SDS011;61365;52.162;4.500;2023-03-18T04:05:45;27.88;;;15.55;;
72684;SDS011;61365;52.162;4.500;2023-03-18T04:08:12;27.58;;;15.73;;
72684;SDS011;61365;52.162;4.500;2023-03-18T04:10:41;30.52;;;16.13;;
72684;SDS011;61365;52.162;4.500;2023-03-18T04:13:08;26.60;;;16.83;;
72684;SDS011;61365;52.162;4.500;2023-03-18T04:15:34;29.23;;;17.23;;
72684;SDS011;61365;52.162;4.500;2023-03-18T04:18:01;27.65;;;16.73;;
72684;SDS011;61365;52.162;4.500;2023-03-18T04:20:32;31.33;;;17.92;;
72684;SDS011;61365;52.162;4.500;2023-03-18T04:23:00;29.63;;;17.52;;
72684;SDS011;61365;52.162;4.500;2023-03-18T04:25:27;32.63;;;19.48;;
72684;SDS011;61365;52.162;4.500;2023-03-18T04:27:54;30.52;;;18.65;;
72684;SDS011;61365;52.162;4.500;2023-03-18T04:30:21;29.52;;;19.52;;
72684;SDS011;61365;52.162;4.500;2023-03-18T04:32:50;31.67;;;19.67;;
72684;SDS011;61365;52.162;4.500;2023-03-18T04:35:17;33.97;;;20.52;;
72684;SDS011;61365;52.162;4.500;2023-03-18T04:37:44;30.02;;;19.02;;
72684;SDS011;61365;52.162;4.500;2023-03-18T04:40:10;34.25;;;18.92;;
72684;SDS011;61365;52.162;4.500;2023-03-18T04:42:37;31.83;;;19.50;;
72684;SDS011;61365;52.162;4.500;2023-03-18T04:45:04;29.92;;;20.33;;
72684;SDS011;61365;52.162;4.500;2023-03-18T04:47:32;30.42;;;19.30;;
72684;SDS011;61365;52.162;4.500;2023-03-18T04:50:00;26.73;;;18.40;;
72684;SDS011;61365;52.162;4.500;2023-03-18T04:52:28;33.97;;;20.15;;
72684;SDS011;61365;52.162;4.500;2023-03-18T04:54:55;31.60;;;19.17;;
72684;SDS011;61365;52.162;4.500;2023-03-18T04:57:21;31.65;;;18.73;;
72684;SDS011;61365;52.162;4.500;2023-03-18T04:59:48;37.15;;;19.73;;
72684;SDS011;61365;52.162;4.500;2023-03-18T05:02:14;37.15;;;20.67;;
72684;SDS011;61365;52.162;4.500;2023-03-18T05:04:40;36.80;;;21.40;;
72684;SDS011;61365;52.162;4.500;2023-03-18T05:07:08;35.35;;;19.45;;
72684;SDS011;61365;52.162;4.500;2023-03-18T05:09:40;31.90;;;19.90;;
72684;SDS011;61365;52.162;4.500;2023-03-18T05:12:11;28.25;;;18.50;;
72684;SDS011;61365;52.162;4.500;2023-03-18T05:14:40;30.60;;;17.88;;
72684;SDS011;61365;52.162;4.500;2023-03-18T05:17:08;30.75;;;19.00;;
72684;SDS011;61365;52.162;4.500;2023-03-18T05:19:41;29.40;;;20.15;;
72684;SDS011;61365;52.162;4.500;2023-03-18T05:22:10;28.75;;;18.15;;
72684;SDS011;61365;52.162;4.500;2023-03-18T05:24:38;32.08;;;19.05;;
72684;SDS011;61365;52.162;4.500;2023-03-18T05:27:05;29.83;;;19.23;;
72684;SDS011;61365;52.162;4.500;2023-03-18T05:29:32;28.92;;;18.42;;
72684;SDS011;61365;52.162;4.500;2023-03-18T05:31:58;30.50;;;20.35;;
72684;SDS011;61365;52.162;4.500;2023-03-18T05:34:25;31.65;;;19.13;;
72684;SDS011;61365;52.162;4.500;2023-03-18T05:36:52;31.23;;;19.42;;
72684;SDS011;61365;52.162;4.500;2023-03-18T05:39:18;32.20;;;19.48;;
72684;SDS011;61365;52.162;4.500;2023-03-18T05:41:45;26.73;;;17.20;;
72684;SDS011;61365;52.162;4.500;2023-03-18T05:44:11;33.88;;;20.52;;
72684;SDS011;61365;52.162;4.500;2023-03-18T05:46:37;31.77;;;20.85;;
72684;SDS011;61365;52.162;4.500;2023-03-18T05:49:04;36.35;;;20.35;;
72684;SDS011;61365;52.162;4.500;2023-03-18T05:51:30;36.35;;;20.98;;
72684;SDS011;61365;52.162;4.500;2023-03-18T05:53:57;28.10;;;18.60;;
72684;SDS011;61365;52.162;4.500;2023-03-18T05:56:23;34.63;;;20.95;;
72684;SDS011;61365;52.162;4.500;2023-03-18T05:58:50;33.08;;;19.13;;
72684;SDS011;61365;52.162;4.500;2023-03-18T06:01:17;34.90;;;20.42;;
72684;SDS011;61365;52.162;4.500;2023-03-18T06:03:44;28.60;;;19.73;;
72684;SDS011;61365;52.162;4.500;2023-03-18T06:06:11;31.88;;;20.67;;
72684;SDS011;61365;52.162;4.500;2023-03-18T06:08:37;27.13;;;19.38;;
72684;SDS011;61365;52.162;4.500;2023-03-18T06:11:03;30.67;;;20.55;;
72684;SDS011;61365;52.162;4.500;2023-03-18T06:13:30;33.13;;;20.55;;
72684;SDS011;61365;52.162;4.500;2023-03-18T06:15:56;34.78;;;20.95;;
72684;SDS011;61365;52.162;4.500;2023-03-18T06:18:24;30.88;;;19.92;;
72684;SDS011;61365;52.162;4.500;2023-03-18T06:20:52;33.50;;;19.63;;
72684;SDS011;61365;52.162;4.500;2023-03-18T06:23:19;30.48;;;19.42;;
72684;SDS011;61365;52.162;4.500;2023-03-18T06:25:45;30.63;;;21.30;;
72684;SDS011;61365;52.162;4.500;2023-03-18T06:28:12;32.75;;;21.35;;
72684;SDS011;61365;52.162;4.500;2023-03-18T06:30:38;32.42;;;19.80;;
72684;SDS011;61365;52.162;4.500;2023-03-18T06:33:05;28.00;;;17.73;;
72684;SDS011;61365;52.162;4.500;2023-03-18T06:35:33;23.27;;;16.60;;
72684;SDS011;61365;52.162;4.500;2023-03-18T06:38:00;25.65;;;16.63;;
72684;SDS011;61365;52.162;4.500;2023-03-18T06:40:27;23.80;;;15.90;;
72684;SDS011;61365;52.162;4.500;2023-03-18T06:42:53;24.40;;;14.88;;
72684;SDS011;61365;52.162;4.500;2023-03-18T06:45:20;23.63;;;14.48;;
72684;SDS011;61365;52.162;4.500;2023-03-18T06:47:47;22.10;;;14.05;;
72684;SDS011;61365;52.162;4.500;2023-03-18T06:50:14;21.65;;;14.32;;
72684;SDS011;61365;52.162;4.500;2023-03-18T06:52:41;24.35;;;14.27;;
72684;SDS011;61365;52.162;4.500;2023-03-18T06:55:08;24.23;;;14.80;;
72684;SDS011;61365;52.162;4.500;2023-03-18T06:57:35;23.15;;;13.40;;
72684;SDS011;61365;52.162;4.500;2023-03-18T07:00:02;22.77;;;15.32;;
72684;SDS011;61365;52.162;4.500;2023-03-18T07:02:29;23.80;;;14.52;;
72684;SDS011;61365;52.162;4.500;2023-03-18T07:04:56;19.10;;;13.65;;
72684;SDS011;61365;52.162;4.500;2023-03-18T07:07:24;19.33;;;13.00;;
72684;SDS011;61365;52.162;4.500;2023-03-18T07:09:51;20.52;;;13.13;;
72684;SDS011;61365;52.162;4.500;2023-03-18T07:12:17;24.98;;;13.50;;
72684;SDS011;61365;52.162;4.500;2023-03-18T07:14:44;20.52;;;12.32;;
72684;SDS011;61365;52.162;4.500;2023-03-18T07:17:12;20.98;;;13.40;;
72684;SDS011;61365;52.162;4.500;2023-03-18T07:19:40;18.60;;;12.75;;
72684;SDS011;61365;52.162;4.500;2023-03-18T07:22:06;23.10;;;12.85;;
72684;SDS011;61365;52.162;4.500;2023-03-18T07:24:33;17.85;;;12.43;;
72684;SDS011;61365;52.162;4.500;2023-03-18T07:27:00;18.60;;;12.60;;
72684;SDS011;61365;52.162;4.500;2023-03-18T07:29:27;22.85;;;13.68;;
72684;SDS011;61365;52.162;4.500;2023-03-18T07:31:53;21.27;;;12.65;;
72684;SDS011;61365;52.162;4.500;2023-03-18T07:34:20;24.70;;;13.05;;
72684;SDS011;61365;52.162;4.500;2023-03-18T07:36:47;18.33;;;12.02;;
72684;SDS011;61365;52.162;4.500;2023-03-18T07:39:14;17.88;;;12.07;;
72684;SDS011;61365;52.162;4.500;2023-03-18T07:41:40;15.85;;;12.00;;
72684;SDS011;61365;52.162;4.500;2023-03-18T07:44:07;18.98;;;11.88;;
72684;SDS011;61365;52.162;4.500;2023-03-18T07:46:34;22.38;;;13.43;;
72684;SDS011;61365;52.162;4.500;2023-03-18T07:49:00;19.40;;;12.35;;
72684;SDS011;61365;52.162;4.500;2023-03-18T07:51:27;16.33;;;9.85;;
72684;SDS011;61365;52.162;4.500;2023-03-18T07:53:54;19.60;;;12.05;;
72684;SDS011;61365;52.162;4.500;2023-03-18T07:56:21;19.92;;;11.88;;
72684;SDS011;61365;52.162;4.500;2023-03-18T07:58:47;20.77;;;12.63;;
72684;SDS011;61365;52.162;4.500;2023-03-18T08:01:13;18.10;;;11.73;;
72684;SDS011;61365;52.162;4.500;2023-03-18T08:03:46;21.23;;;11.88;;
72684;SDS011;61365;52.162;4.500;2023-03-18T08:06:13;17.83;;;10.30;;
72684;SDS011;61365;52.162;4.500;2023-03-18T08:08:40;20.45;;;11.55;;
72684;SDS011;61365;52.162;4.500;2023-03-18T08:11:08;18.33;;;12.27;;
72684;SDS011;61365;52.162;4.500;2023-03-18T08:13:35;17.98;;;11.27;;
72684;SDS011;61365;52.162;4.500;2023-03-18T08:16:04;22.92;;;12.10;;
72684;SDS011;61365;52.162;4.500;2023-03-18T08:18:31;13.93;;;9.80;;
72684;SDS011;61365;52.162;4.500;2023-03-18T08:20:58;18.77;;;10.82;;
72684;SDS011;61365;52.162;4.500;2023-03-18T08:23:24;19.25;;;10.68;;
72684;SDS011;61365;52.162;4.500;2023-03-18T08:25:51;20.95;;;10.68;;
72684;SDS011;61365;52.162;4.500;2023-03-18T08:28:17;17.17;;;10.98;;
72684;SDS011;61365;52.162;4.500;2023-03-18T08:30:44;15.20;;;10.30;;
72684;SDS011;61365;52.162;4.500;2023-03-18T08:33:11;17.33;;;10.55;;
72684;SDS011;61365;52.162;4.500;2023-03-18T08:35:38;16.50;;;10.80;;
72684;SDS011;61365;52.162;4.500;2023-03-18T08:38:07;15.95;;;10.27;;
72684;SDS011;61365;52.162;4.500;2023-03-18T08:40:34;16.45;;;10.15;;
72684;SDS011;61365;52.162;4.500;2023-03-18T08:43:01;18.08;;;10.43;;
72684;SDS011;61365;52.162;4.500;2023-03-18T08:45:27;14.93;;;10.00;;
72684;SDS011;61365;52.162;4.500;2023-03-18T08:47:53;19.42;;;10.45;;
72684;SDS011;61365;52.162;4.500;2023-03-18T08:50:20;16.15;;;10.18;;
72684;SDS011;61365;52.162;4.500;2023-03-18T08:52:47;17.20;;;11.40;;
72684;SDS011;61365;52.162;4.500;2023-03-18T08:55:14;15.98;;;10.45;;
72684;SDS011;61365;52.162;4.500;2023-03-18T08:57:41;15.32;;;10.68;;
72684;SDS011;61365;52.162;4.500;2023-03-18T09:00:07;16.80;;;10.07;;
72684;SDS011;61365;52.162;4.500;2023-03-18T09:02:34;16.73;;;10.50;;
72684;SDS011;61365;52.162;4.500;2023-03-18T09:05:01;17.33;;;10.80;;
72684;SDS011;61365;52.162;4.500;2023-03-18T09:07:27;21.30;;;11.93;;
72684;SDS011;61365;52.162;4.500;2023-03-18T09:09:53;19.02;;;12.63;;
72684;SDS011;61365;52.162;4.500;2023-03-18T09:12:20;19.02;;;13.43;;
72684;SDS011;61365;52.162;4.500;2023-03-18T09:14:47;17.50;;;11.38;;
72684;SDS011;61365;52.162;4.500;2023-03-18T09:17:13;23.63;;;14.50;;
72684;SDS011;61365;52.162;4.500;2023-03-18T09:19:40;24.85;;;18.05;;
72684;SDS011;61365;52.162;4.500;2023-03-18T09:22:06;24.63;;;16.63;;
72684;SDS011;61365;52.162;4.500;2023-03-18T09:24:35;22.27;;;15.75;;
72684;SDS011;61365;52.162;4.500;2023-03-18T09:27:01;23.75;;;15.60;;
72684;SDS011;61365;52.162;4.500;2023-03-18T09:29:27;20.65;;;14.35;;
72684;SDS011;61365;52.162;4.500;2023-03-18T09:31:54;20.08;;;12.45;;
72684;SDS011;61365;52.162;4.500;2023-03-18T09:34:21;17.58;;;12.15;;
72684;SDS011;61365;52.162;4.500;2023-03-18T09:36:47;21.90;;;14.73;;
72684;SDS011;61365;52.162;4.500;2023-03-18T09:39:16;20.33;;;14.35;;
72684;SDS011;61365;52.162;4.500;2023-03-18T09:41:59;22.98;;;15.10;;
72684;SDS011;61365;52.162;4.500;2023-03-18T09:44:43;20.48;;;15.05;;
72684;SDS011;61365;52.162;4.500;2023-03-18T09:56:18;27.40;;;18.95;;
72684;SDS011;61365;52.162;4.500;2023-03-18T09:59:01;25.80;;;19.83;;
72684;SDS011;61365;52.162;4.500;2023-03-18T10:01:41;22.83;;;17.00;;
72684;SDS011;61365;52.162;4.500;2023-03-18T10:07:02;21.75;;;17.13;;
72684;SDS011;61365;52.162;4.500;2023-03-18T10:09:40;21.00;;;15.48;;
72684;SDS011;61365;52.162;4.500;2023-03-18T10:14:48;22.25;;;15.63;;
72684;SDS011;61365;52.162;4.500;2023-03-18T10:17:34;21.73;;;15.05;;
72684;SDS011;61365;52.162;4.500;2023-03-18T10:20:13;22.40;;;15.10;;
72684;SDS011;61365;52.162;4.500;2023-03-18T10:23:01;20.08;;;14.77;;
72684;SDS011;61365;52.162;4.500;2023-03-18T10:25:50;20.33;;;14.70;;
72684;SDS011;61365;52.162;4.500;2023-03-18T10:34:22;21.67;;;13.55;;
72684;SDS011;61365;52.162;4.500;2023-03-18T10:40:22;25.48;;;14.52;;
72684;SDS011;61365;52.162;4.500;2023-03-18T10:42:50;21.15;;;13.90;;
72684;SDS011;61365;52.162;4.500;2023-03-18T10:47:52;24.23;;;14.13;;
72684;SDS011;61365;52.162;4.500;2023-03-18T10:50:31;20.42;;;14.50;;
72684;SDS011;61365;52.162;4.500;2023-03-18T10:56:06;23.58;;;14.38;;
72684;SDS011;61365;52.162;4.500;2023-03-18T10:58:38;18.65;;;12.73;;
72684;SDS011;61365;52.162;4.500;2023-03-18T11:01:08;19.08;;;12.90;;
72684;SDS011;61365;52.162;4.500;2023-03-18T11:03:58;19.77;;;11.73;;
72684;SDS011;61365;52.162;4.500;2023-03-18T11:09:11;18.90;;;11.27;;
72684;SDS011;61365;52.162;4.500;2023-03-18T11:11:46;20.40;;;11.63;;
72684;SDS011;61365;52.162;4.500;2023-03-18T11:14:19;15.32;;;10.55;;
72684;SDS011;61365;52.162;4.500;2023-03-18T11:17:17;16.95;;;10.73;;
72684;SDS011;61365;52.162;4.500;2023-03-18T11:22:44;15.02;;;9.55;;
72684;SDS011;61365;52.162;4.500;2023-03-18T11:25:20;18.50;;;9.18;;
72684;SDS011;61365;52.162;4.500;2023-03-18T11:27:59;16.90;;;9.15;;
72684;SDS011;61365;52.162;4.500;2023-03-18T11:30:34;15.38;;;9.02;;
72684;SDS011;61365;52.162;4.500;2023-03-18T11:33:12;14.80;;;8.18;;
72684;SDS011;61365;52.162;4.500;2023-03-18T11:38:24;11.98;;;7.80;;
72684;SDS011;61365;52.162;4.500;2023-03-18T11:41:14;17.30;;;8.73;;
72684;SDS011;61365;52.162;4.500;2023-03-18T11:46:25;15.25;;;8.95;;
72684;SDS011;61365;52.162;4.500;2023-03-18T11:48:58;14.52;;;8.93;;
72684;SDS011;61365;52.162;4.500;2023-03-18T11:51:32;16.13;;;9.35;;
72684;SDS011;61365;52.162;4.500;2023-03-18T12:06:39;14.13;;;9.10;;
72684;SDS011;61365;52.162;4.500;2023-03-18T12:27:23;12.23;;;7.65;;
72684;SDS011;61365;52.162;4.500;2023-03-18T12:32:57;12.48;;;6.88;;
72684;SDS011;61365;52.162;4.500;2023-03-18T12:41:24;15.80;;;6.97;;
72684;SDS011;61365;52.162;4.500;2023-03-18T12:47:00;10.90;;;5.75;;
72684;SDS011;61365;52.162;4.500;2023-03-18T12:49:45;11.35;;;5.60;;
72684;SDS011;61365;52.162;4.500;2023-03-18T12:55:18;20.52;;;12.05;;
72684;SDS011;61365;52.162;4.500;2023-03-18T12:58:10;9.48;;;4.53;;
72684;SDS011;61365;52.162;4.500;2023-03-18T13:03:44;11.23;;;4.72;;
72684;SDS011;61365;52.162;4.500;2023-03-18T13:06:26;10.85;;;4.70;;
72684;SDS011;61365;52.162;4.500;2023-03-18T13:14:46;8.77;;;3.60;;
72684;SDS011;61365;52.162;4.500;2023-03-18T13:17:24;5.70;;;2.72;;
72684;SDS011;61365;52.162;4.500;2023-03-18T13:19:57;4.15;;;2.00;;
72684;SDS011;61365;52.162;4.500;2023-03-18T13:25:20;7.15;;;2.67;;
72684;SDS011;61365;52.162;4.500;2023-03-18T13:33:48;5.68;;;2.80;;
72684;SDS011;61365;52.162;4.500;2023-03-18T13:36:56;5.72;;;2.33;;
72684;SDS011;61365;52.162;4.500;2023-03-18T13:42:57;5.22;;;2.58;;
72684;SDS011;61365;52.162;4.500;2023-03-18T13:45:31;5.97;;;2.75;;
72684;SDS011;61365;52.162;4.500;2023-03-18T13:50:37;5.70;;;2.58;;
72684;SDS011;61365;52.162;4.500;2023-03-18T13:58:23;4.57;;;2.00;;
72684;SDS011;61365;52.162;4.500;2023-03-18T14:03:29;5.97;;;2.85;;
72684;SDS011;61365;52.162;4.500;2023-03-18T14:06:18;9.48;;;3.17;;
72684;SDS011;61365;52.162;4.500;2023-03-18T14:09:21;7.45;;;3.15;;
72684;SDS011;61365;52.162;4.500;2023-03-18T14:12:18;8.38;;;3.55;;
72684;SDS011;61365;52.162;4.500;2023-03-18T14:22:42;12.32;;;3.80;;
72684;SDS011;61365;52.162;4.500;2023-03-18T14:35:49;7.85;;;2.95;;
72684;SDS011;61365;52.162;4.500;2023-03-18T14:38:25;8.10;;;3.70;;
72684;SDS011;61365;52.162;4.500;2023-03-18T14:41:24;8.77;;;4.15;;
72684;SDS011;61365;52.162;4.500;2023-03-18T14:44:00;10.05;;;4.20;;
72684;SDS011;61365;52.162;4.500;2023-03-18T14:46:48;12.53;;;3.57;;
72684;SDS011;61365;52.162;4.500;2023-03-18T14:51:59;7.38;;;3.35;;
72684;SDS011;61365;52.162;4.500;2023-03-18T14:54:30;7.53;;;3.13;;
72684;SDS011;61365;52.162;4.500;2023-03-18T14:57:08;4.85;;;2.70;;
72684;SDS011;61365;52.162;4.500;2023-03-18T14:59:35;6.32;;;2.65;;
72684;SDS011;61365;52.162;4.500;2023-03-18T15:02:01;5.80;;;2.20;;
72684;SDS011;61365;52.162;4.500;2023-03-18T15:04:49;5.82;;;2.38;;
72684;SDS011;61365;52.162;4.500;2023-03-18T15:07:19;4.80;;;2.42;;
72684;SDS011;61365;52.162;4.500;2023-03-18T15:09:58;5.10;;;2.20;;
72684;SDS011;61365;52.162;4.500;2023-03-18T15:12:38;3.85;;;1.95;;
72684;SDS011;61365;52.162;4.500;2023-03-18T15:15:05;3.47;;;2.13;;
72684;SDS011;61365;52.162;4.500;2023-03-18T15:17:39;4.00;;;2.10;;
72684;SDS011;61365;52.162;4.500;2023-03-18T15:20:13;4.97;;;2.00;;
72684;SDS011;61365;52.162;4.500;2023-03-18T15:22:40;5.18;;;2.17;;
72684;SDS011;61365;52.162;4.500;2023-03-18T15:25:15;3.88;;;2.10;;
72684;SDS011;61365;52.162;4.500;2023-03-18T15:27:45;3.63;;;2.10;;
72684;SDS011;61365;52.162;4.500;2023-03-18T15:30:23;5.20;;;1.98;;
72684;SDS011;61365;52.162;4.500;2023-03-18T15:33:04;4.65;;;1.92;;
72684;SDS011;61365;52.162;4.500;2023-03-18T15:35:43;4.95;;;2.35;;
72684;SDS011;61365;52.162;4.500;2023-03-18T15:43:37;6.22;;;2.30;;
72684;SDS011;61365;52.162;4.500;2023-03-18T15:46:28;6.68;;;2.17;;
72684;SDS011;61365;52.162;4.500;2023-03-18T15:48:59;5.60;;;2.30;;
72684;SDS011;61365;52.162;4.500;2023-03-18T15:54:21;5.25;;;2.60;;
72684;SDS011;61365;52.162;4.500;2023-03-18T15:56:55;4.90;;;2.30;;
72684;SDS011;61365;52.162;4.500;2023-03-18T15:59:25;6.18;;;2.50;;
72684;SDS011;61365;52.162;4.500;2023-03-18T16:01:56;6.43;;;2.85;;
72684;SDS011;61365;52.162;4.500;2023-03-18T16:04:27;4.38;;;2.63;;
72684;SDS011;61365;52.162;4.500;2023-03-18T16:09:24;7.45;;;2.30;;
72684;SDS011;61365;52.162;4.500;2023-03-18T16:11:52;5.78;;;2.03;;
72684;SDS011;61365;52.162;4.500;2023-03-18T16:14:28;6.05;;;2.35;;
72684;SDS011;61365;52.162;4.500;2023-03-18T16:17:11;5.53;;;1.85;;
72684;SDS011;61365;52.162;4.500;2023-03-18T16:19:40;4.93;;;2.10;;
72684;SDS011;61365;52.162;4.500;2023-03-18T16:22:08;5.18;;;2.05;;
72684;SDS011;61365;52.162;4.500;2023-03-18T16:24:35;5.20;;;2.10;;
72684;SDS011;61365;52.162;4.500;2023-03-18T16:27:02;3.35;;;1.85;;
72684;SDS011;61365;52.162;4.500;2023-03-18T16:29:31;5.35;;;2.22;;
72684;SDS011;61365;52.162;4.500;2023-03-18T16:32:03;3.83;;;2.03;;
72684;SDS011;61365;52.162;4.500;2023-03-18T16:34:30;8.38;;;2.83;;
72684;SDS011;61365;52.162;4.500;2023-03-18T16:36:57;5.15;;;2.17;;
72684;SDS011;61365;52.162;4.500;2023-03-18T16:39:26;7.30;;;2.22;;
72684;SDS011;61365;52.162;4.500;2023-03-18T16:42:00;5.18;;;2.65;;
72684;SDS011;61365;52.162;4.500;2023-03-18T16:44:27;4.93;;;2.20;;
72684;SDS011;61365;52.162;4.500;2023-03-18T16:46:54;6.47;;;2.83;;
72684;SDS011;61365;52.162;4.500;2023-03-18T16:49:28;9.00;;;2.85;;
72684;SDS011;61365;52.162;4.500;2023-03-18T16:51:57;7.28;;;2.72;;
72684;SDS011;61365;52.162;4.500;2023-03-18T16:54:27;3.20;;;2.20;;
72684;SDS011;61365;52.162;4.500;2023-03-18T16:56:58;3.90;;;2.40;;
72684;SDS011;61365;52.162;4.500;2023-03-18T16:59:30;5.15;;;2.20;;
72684;SDS011;61365;52.162;4.500;2023-03-18T17:02:00;7.65;;;2.45;;
72684;SDS011;61365;52.162;4.500;2023-03-18T17:04:29;5.22;;;2.40;;
72684;SDS011;61365;52.162;4.500;2023-03-18T17:07:00;7.22;;;2.30;;
72684;SDS011;61365;52.162;4.500;2023-03-18T17:09:29;6.97;;;2.47;;
72684;SDS011;61365;52.162;4.500;2023-03-18T17:11:57;10.63;;;2.92;;
72684;SDS011;61365;52.162;4.500;2023-03-18T17:14:34;6.90;;;2.13;;
72684;SDS011;61365;52.162;4.500;2023-03-18T17:19:54;4.68;;;2.20;;
72684;SDS011;61365;52.162;4.500;2023-03-18T17:22:25;7.15;;;2.78;;
72684;SDS011;61365;52.162;4.500;2023-03-18T17:24:55;4.47;;;2.30;;
72684;SDS011;61365;52.162;4.500;2023-03-18T17:27:23;4.57;;;2.38;;
72684;SDS011;61365;52.162;4.500;2023-03-18T17:29:54;5.70;;;2.58;;